sensor_id;sensor_type;location;lat;lon;timestamp;pressure;altitude;pressure_sealevel;temperature;humidity
8627;BME280;4351;51.422;6.794;2023-05-11T00:00:29;104868.28;;;12.62;100.00
8627;BME280;4351;51.422;6.794;2023-05-11T00:03:04;104891.72;;;12.76;100.00
8627;BME280;4351;51.422;6.794;2023-05-11T00:05:37;104901.63;;;12.80;100.00
8627;BME280;4351;51.422;6.794;2023-05-11T00:08:17;104885.34;;;12.82;100.00
8627;BME280;4351;51.422;6.794;2023-05-11T00:10:59;104863.72;;;12.74;100.00
8627;BME280;4351;51.422;6.794;2023-05-11T00:13:39;104832.16;;;12.65;100.00
8627;BME280;4351;51.422;6.794;2023-05-11T00:16:13;104878.19;;;12.74;100.00
8627;BME280;4351;51.422;6.794;2023-05-11T00:18:47;104846.59;;;12.66;100.00
8627;BME280;4351;51.422;6.794;2023-05-11T00:21:29;104840.25;;;12.71;100.00
8627;BME280;4351;51.422;6.794;2023-05-11T00:24:09;104811.44;;;12.51;100.00
8627;BME280;4351;51.422;6.794;2023-05-11T00:26:55;104825.91;;;12.50;100.00
8627;BME280;4351;51.422;6.794;2023-05-11T00:29:33;104917.03;;;12.64;100.00
8627;BME280;4351;51.422;6.794;2023-05-11T00:32:12;104971.22;;;12.64;100.00
8627;BME280;4351;51.422;6.794;2023-05-11T00:34:50;105022.69;;;12.64;100.00
8627;BME280;4351;51.422;6.794;2023-05-11T00:37:33;105075.09;;;12.60;100.00
8627;BME280;4351;51.422;6.794;2023-05-11T00:40:14;105143.72;;;12.62;99.55
8627;BME280;4351;51.422;6.794;2023-05-11T00:42:52;105172.66;;;12.63;92.94
8627;BME280;4351;51.422;6.794;2023-05-11T00:45:28;105210.59;;;12.68;85.89
8627;BME280;4351;51.422;6.794;2023-05-11T00:48:10;105206.97;;;12.67;81.90
8627;BME280;4351;51.422;6.794;2023-05-11T00:50:47;105224.16;;;12.68;78.22
8627;BME280;4351;51.422;6.794;2023-05-11T00:53:19;105225.94;;;12.62;76.80
8627;BME280;4351;51.422;6.794;2023-05-11T00:55:58;105279.22;;;12.68;73.21
8627;BME280;4351;51.422;6.794;2023-05-11T00:58:40;105308.13;;;12.66;71.31
8627;BME280;4351;51.422;6.794;2023-05-11T01:01:19;105311.75;;;12.59;69.32
8627;BME280;4351;51.422;6.794;2023-05-11T01:04:05;105382.22;;;12.71;66.21
8627;BME280;4351;51.422;6.794;2023-05-11T01:07:02;105389.44;;;12.63;65.03
8627;BME280;4351;51.422;6.794;2023-05-11T01:09:58;105393.91;;;12.59;64.13
8627;BME280;4351;51.422;6.794;2023-05-11T01:12:48;105426.47;;;12.66;63.03
8627;BME280;4351;51.422;6.794;2023-05-11T01:15:31;105456.28;;;12.70;61.96
8627;BME280;4351;51.422;6.794;2023-05-11T01:18:21;105453.59;;;12.67;61.40
8627;BME280;4351;51.422;6.794;2023-05-11T01:21:09;105476.16;;;12.69;60.85
8627;BME280;4351;51.422;6.794;2023-05-11T01:24:25;105509.63;;;12.73;60.11
8627;BME280;4351;51.422;6.794;2023-05-11T01:27:23;105553.00;;;12.79;59.25
8627;BME280;4351;51.422;6.794;2023-05-11T01:30:29;105524.06;;;12.75;61.07
8627;BME280;4351;51.422;6.794;2023-05-11T01:33:09;105631.66;;;12.81;58.18
8627;BME280;4351;51.422;6.794;2023-05-11T01:35:55;105695.91;;;12.93;57.36
8627;BME280;4351;51.422;6.794;2023-05-11T01:38:40;105712.16;;;12.91;57.09
8627;BME280;4351;51.422;6.794;2023-05-11T01:41:27;105750.16;;;12.94;56.65
8627;BME280;4351;51.422;6.794;2023-05-11T01:44:06;105751.03;;;12.93;56.48
8627;BME280;4351;51.422;6.794;2023-05-11T01:46:59;105755.53;;;12.93;56.33
8627;BME280;4351;51.422;6.794;2023-05-11T01:49:41;105769.13;;;12.94;56.05
8627;BME280;4351;51.422;6.794;2023-05-11T01:52:26;105794.47;;;12.96;55.79
8627;BME280;4351;51.422;6.794;2023-05-11T01:55:16;105815.25;;;12.99;55.58
8627;BME280;4351;51.422;6.794;2023-05-11T01:58:02;105831.50;;;12.94;55.56
8627;BME280;4351;51.422;6.794;2023-05-11T02:00:34;105888.56;;;13.05;55.02
8627;BME280;4351;51.422;6.794;2023-05-11T02:03:10;105855.91;;;12.94;55.24
8627;BME280;4351;51.422;6.794;2023-05-11T02:05:47;105785.31;;;12.83;55.53
8627;BME280;4351;51.422;6.794;2023-05-11T02:08:23;105750.06;;;12.83;55.70
8627;BME280;4351;51.422;6.794;2023-05-11T02:10:58;105640.72;;;12.86;56.19
8627;BME280;4351;51.422;6.794;2023-05-11T02:13:31;105516.06;;;12.95;56.81
8627;BME280;4351;51.422;6.794;2023-05-11T02:16:11;105362.44;;;12.90;58.34
8627;BME280;4351;51.422;6.794;2023-05-11T02:18:59;105203.38;;;12.93;60.22
8627;BME280;4351;51.422;6.794;2023-05-11T02:21:36;105013.63;;;12.90;63.61
8627;BME280;4351;51.422;6.794;2023-05-11T02:24:23;104867.25;;;12.90;69.23
8627;BME280;4351;51.422;6.794;2023-05-11T02:27:02;104723.66;;;12.85;78.73
8627;BME280;4351;51.422;6.794;2023-05-11T02:29:40;104654.09;;;12.83;93.29
8627;BME280;4351;51.422;6.794;2023-05-11T02:32:21;104617.88;;;12.93;100.00
8627;BME280;4351;51.422;6.794;2023-05-11T02:35:11;104579.97;;;12.87;100.00
8627;BME280;4351;51.422;6.794;2023-05-11T02:37:49;104559.19;;;12.86;100.00
8627;BME280;4351;51.422;6.794;2023-05-11T02:40:38;104544.78;;;12.85;100.00
8627;BME280;4351;51.422;6.794;2023-05-11T02:43:24;104579.06;;;12.90;100.00
8627;BME280;4351;51.422;6.794;2023-05-11T02:46:14;104581.84;;;12.80;100.00
8627;BME280;4351;51.422;6.794;2023-05-11T02:49:02;104583.56;;;12.89;100.00
8627;BME280;4351;51.422;6.794;2023-05-11T02:51:43;104499.66;;;12.80;100.00
8627;BME280;4351;51.422;6.794;2023-05-11T02:54:27;104440.91;;;12.82;100.00
8627;BME280;4351;51.422;6.794;2023-05-11T02:57:08;104391.31;;;12.76;100.00
8627;BME280;4351;51.422;6.794;2023-05-11T02:59:54;104405.72;;;12.80;100.00
8627;BME280;4351;51.422;6.794;2023-05-11T03:02:29;104433.72;;;12.81;100.00
8627;BME280;4351;51.422;6.794;2023-05-11T03:05:09;104412.03;;;12.79;100.00
8627;BME280;4351;51.422;6.794;2023-05-11T03:07:56;104387.63;;;12.82;100.00
8627;BME280;4351;51.422;6.794;2023-05-11T03:10:30;104336.28;;;12.71;100.00
8627;BME280;4351;51.422;6.794;2023-05-11T03:12:59;104328.91;;;12.83;100.00
8627;BME280;4351;51.422;6.794;2023-05-11T03:15:34;104275.63;;;12.83;100.00
8627;BME280;4351;51.422;6.794;2023-05-11T03:18:14;104236.63;;;12.94;100.00
8627;BME280;4351;51.422;6.794;2023-05-11T03:20:54;104173.41;;;12.90;100.00
8627;BME280;4351;51.422;6.794;2023-05-11T03:23:37;104142.69;;;12.91;100.00
8627;BME280;4351;51.422;6.794;2023-05-11T03:26:26;104101.19;;;12.89;100.00
8627;BME280;4351;51.422;6.794;2023-05-11T03:29:11;104085.78;;;12.91;100.00
8627;BME280;4351;51.422;6.794;2023-05-11T03:32:00;104066.06;;;12.83;100.00
8627;BME280;4351;51.422;6.794;2023-05-11T03:34:37;104047.88;;;12.88;100.00
8627;BME280;4351;51.422;6.794;2023-05-11T03:37:27;104030.84;;;12.83;100.00
8627;BME280;4351;51.422;6.794;2023-05-11T03:40:09;104040.84;;;12.78;100.00
8627;BME280;4351;51.422;6.794;2023-05-11T03:43:02;104130.22;;;12.81;100.00
8627;BME280;4351;51.422;6.794;2023-05-11T03:45:44;104217.88;;;12.78;100.00
8627;BME280;4351;51.422;6.794;2023-05-11T03:48:29;104313.56;;;12.82;100.00
8627;BME280;4351;51.422;6.794;2023-05-11T03:51:09;104405.66;;;12.85;100.00
8627;BME280;4351;51.422;6.794;2023-05-11T03:53:50;104500.59;;;12.79;100.00
8627;BME280;4351;51.422;6.794;2023-05-11T03:56:36;104619.75;;;12.82;100.00
8627;BME280;4351;51.422;6.794;2023-05-11T03:59:15;104703.78;;;12.83;100.00
8627;BME280;4351;51.422;6.794;2023-05-11T04:01:51;104739.91;;;12.84;100.00
8627;BME280;4351;51.422;6.794;2023-05-11T04:04:39;104729.09;;;12.78;100.00
8627;BME280;4351;51.422;6.794;2023-05-11T04:07:15;104786.91;;;12.78;100.00
8627;BME280;4351;51.422;6.794;2023-05-11T04:09:48;104891.69;;;12.81;100.00
8627;BME280;4351;51.422;6.794;2023-05-11T04:12:36;104970.28;;;12.78;100.00
8627;BME280;4351;51.422;6.794;2023-05-11T04:15:11;105036.25;;;12.76;100.00
8627;BME280;4351;51.422;6.794;2023-05-11T04:17:43;105118.47;;;12.83;100.00
8627;BME280;4351;51.422;6.794;2023-05-11T04:20:20;105182.59;;;12.83;100.00
8627;BME280;4351;51.422;6.794;2023-05-11T04:23:02;105195.25;;;12.78;100.00
8627;BME280;4351;51.422;6.794;2023-05-11T04:25:44;105235.91;;;12.78;100.00
8627;BME280;4351;51.422;6.794;2023-05-11T04:28:24;105282.88;;;12.81;95.62
8627;BME280;4351;51.422;6.794;2023-05-11T04:31:09;105373.25;;;12.85;85.60
8627;BME280;4351;51.422;6.794;2023-05-11T04:33:42;105417.50;;;12.84;81.29
8627;BME280;4351;51.422;6.794;2023-05-11T04:36:25;105445.50;;;12.80;76.66
8627;BME280;4351;51.422;6.794;2023-05-11T04:39:04;105464.47;;;12.80;73.42
8627;BME280;4351;51.422;6.794;2023-05-11T04:41:47;105481.63;;;12.72;70.92
8627;BME280;4351;51.422;6.794;2023-05-11T04:44:32;105514.16;;;12.75;68.49
8627;BME280;4351;51.422;6.794;2023-05-11T04:47:10;105531.31;;;12.78;66.81
8627;BME280;4351;51.422;6.794;2023-05-11T04:49:56;105533.13;;;12.77;65.86
8627;BME280;4351;51.422;6.794;2023-05-11T04:52:34;105533.16;;;12.80;65.06
8627;BME280;4351;51.422;6.794;2023-05-11T04:55:08;105516.84;;;12.77;64.88
8627;BME280;4351;51.422;6.794;2023-05-11T04:57:45;105539.50;;;12.81;64.26
8627;BME280;4351;51.422;6.794;2023-05-11T05:00:28;105495.22;;;12.80;64.74
8627;BME280;4351;51.422;6.794;2023-05-11T05:03:10;105453.63;;;12.81;64.89
8627;BME280;4351;51.422;6.794;2023-05-11T05:05:52;105425.69;;;12.93;64.99
8627;BME280;4351;51.422;6.794;2023-05-11T05:08:34;105282.88;;;12.80;67.97
8627;BME280;4351;51.422;6.794;2023-05-11T05:11:18;105246.75;;;12.87;69.36
8627;BME280;4351;51.422;6.794;2023-05-11T05:14:03;105238.63;;;12.92;70.81
8627;BME280;4351;51.422;6.794;2023-05-11T05:16:42;105185.31;;;12.83;74.05
8627;BME280;4351;51.422;6.794;2023-05-11T05:19:21;105217.84;;;12.89;74.67
8627;BME280;4351;51.422;6.794;2023-05-11T05:22:04;105235.03;;;12.90;75.73
8627;BME280;4351;51.422;6.794;2023-05-11T05:24:34;105256.69;;;12.99;75.89
8627;BME280;4351;51.422;6.794;2023-05-11T05:27:04;105265.75;;;13.04;75.83
8627;BME280;4351;51.422;6.794;2023-05-11T05:29:42;105262.13;;;13.07;76.86
8627;BME280;4351;51.422;6.794;2023-05-11T05:32:17;105163.63;;;12.86;83.69
8627;BME280;4351;51.422;6.794;2023-05-11T05:34:51;105169.94;;;12.88;85.47
8627;BME280;4351;51.422;6.794;2023-05-11T05:37:22;105153.69;;;12.85;89.82
8627;BME280;4351;51.422;6.794;2023-05-11T05:40:05;105162.72;;;12.85;91.04
8627;BME280;4351;51.422;6.794;2023-05-11T05:42:50;105212.41;;;13.02;88.82
8627;BME280;4351;51.422;6.794;2023-05-11T05:45:39;105206.97;;;12.92;91.60
8627;BME280;4351;51.422;6.794;2023-05-11T05:48:23;105181.69;;;12.95;93.42
8627;BME280;4351;51.422;6.794;2023-05-11T05:51:04;105184.41;;;13.07;93.88
8627;BME280;4351;51.422;6.794;2023-05-11T05:53:46;105134.69;;;13.07;99.35
8627;BME280;4351;51.422;6.794;2023-05-11T05:56:26;105107.59;;;13.05;100.00
8627;BME280;4351;51.422;6.794;2023-05-11T05:59:05;105142.81;;;13.15;100.00
8627;BME280;4351;51.422;6.794;2023-05-11T06:01:40;105144.59;;;13.28;100.00
8627;BME280;4351;51.422;6.794;2023-05-11T06:04:27;105117.47;;;13.25;100.00
8627;BME280;4351;51.422;6.794;2023-05-11T06:07:08;104986.28;;;13.45;100.00
8627;BME280;4351;51.422;6.794;2023-05-11T06:09:49;104802.78;;;13.38;100.00
8627;BME280;4351;51.422;6.794;2023-05-11T06:12:29;104695.19;;;13.38;100.00
8627;BME280;4351;51.422;6.794;2023-05-11T06:15:10;104570.47;;;13.35;100.00
8627;BME280;4351;51.422;6.794;2023-05-11T06:17:57;104466.41;;;13.41;100.00
8627;BME280;4351;51.422;6.794;2023-05-11T06:20:34;104378.97;;;13.21;100.00
8627;BME280;4351;51.422;6.794;2023-05-11T06:23:19;104328.28;;;13.28;100.00
8627;BME280;4351;51.422;6.794;2023-05-11T06:26:02;104287.28;;;13.47;100.00
8627;BME280;4351;51.422;6.794;2023-05-11T06:28:46;104203.13;;;13.52;100.00
8627;BME280;4351;51.422;6.794;2023-05-11T06:31:30;104142.56;;;13.51;100.00
8627;BME280;4351;51.422;6.794;2023-05-11T06:34:06;104092.03;;;13.45;100.00
8627;BME280;4351;51.422;6.794;2023-05-11T06:36:43;104118.94;;;13.60;100.00
8627;BME280;4351;51.422;6.794;2023-05-11T06:39:16;104078.25;;;13.58;100.00
8627;BME280;4351;51.422;6.794;2023-05-11T06:41:51;104009.63;;;13.53;100.00
8627;BME280;4351;51.422;6.794;2023-05-11T06:44:34;103964.19;;;13.64;100.00
8627;BME280;4351;51.422;6.794;2023-05-11T06:47:15;103870.00;;;13.70;100.00
8627;BME280;4351;51.422;6.794;2023-05-11T06:49:55;103790.47;;;13.67;100.00
8627;BME280;4351;51.422;6.794;2023-05-11T06:52:28;103745.31;;;13.65;100.00
8627;BME280;4351;51.422;6.794;2023-05-11T06:55:02;103889.94;;;13.68;100.00
8627;BME280;4351;51.422;6.794;2023-05-11T06:57:39;103865.41;;;13.73;100.00
8627;BME280;4351;51.422;6.794;2023-05-11T07:00:18;103804.84;;;13.71;100.00
8627;BME280;4351;51.422;6.794;2023-05-11T07:03:03;103747.84;;;13.73;100.00
8627;BME280;4351;51.422;6.794;2023-05-11T07:05:35;103720.50;;;13.81;100.00
8627;BME280;4351;51.422;6.794;2023-05-11T07:08:06;103642.66;;;13.83;100.00
8627;BME280;4351;51.422;6.794;2023-05-11T07:10:43;103576.16;;;13.67;100.00
8627;BME280;4351;51.422;6.794;2023-05-11T07:13:26;103562.19;;;13.82;100.00
8627;BME280;4351;51.422;6.794;2023-05-11T07:16:05;103514.34;;;13.79;100.00
8627;BME280;4351;51.422;6.794;2023-05-11T07:18:44;103447.34;;;13.81;100.00
8627;BME280;4351;51.422;6.794;2023-05-11T07:21:24;103392.38;;;13.74;100.00
8627;BME280;4351;51.422;6.794;2023-05-11T07:24:06;103355.34;;;13.73;100.00
8627;BME280;4351;51.422;6.794;2023-05-11T07:26:47;103343.19;;;13.85;100.00
8627;BME280;4351;51.422;6.794;2023-05-11T07:29:30;103325.78;;;13.93;100.00
8627;BME280;4351;51.422;6.794;2023-05-11T07:32:14;103271.00;;;14.07;100.00
8627;BME280;4351;51.422;6.794;2023-05-11T07:34:53;103223.22;;;14.28;100.00
8627;BME280;4351;51.422;6.794;2023-05-11T07:37:31;103084.59;;;14.31;100.00
8627;BME280;4351;51.422;6.794;2023-05-11T07:40:10;102923.72;;;14.26;100.00
8627;BME280;4351;51.422;6.794;2023-05-11T07:42:56;102787.56;;;14.35;100.00
8627;BME280;4351;51.422;6.794;2023-05-11T07:45:37;102644.16;;;14.45;100.00
8627;BME280;4351;51.422;6.794;2023-05-11T07:48:21;102475.25;;;14.56;100.00
8627;BME280;4351;51.422;6.794;2023-05-11T07:51:00;102354.47;;;14.64;100.00
8627;BME280;4351;51.422;6.794;2023-05-11T07:53:38;102224.09;;;14.64;100.00
8627;BME280;4351;51.422;6.794;2023-05-11T07:56:27;102067.03;;;14.56;100.00
8627;BME280;4351;51.422;6.794;2023-05-11T07:59:10;101977.69;;;14.67;100.00
8627;BME280;4351;51.422;6.794;2023-05-11T08:01:55;101895.66;;;14.77;100.00
8627;BME280;4351;51.422;6.794;2023-05-11T08:04:33;101769.53;;;14.66;100.00
8627;BME280;4351;51.422;6.794;2023-05-11T08:07:16;101665.38;;;14.67;100.00
8627;BME280;4351;51.422;6.794;2023-05-11T08:09:51;101577.41;;;14.70;100.00
8627;BME280;4351;51.422;6.794;2023-05-11T08:12:39;101446.41;;;14.66;100.00
8627;BME280;4351;51.422;6.794;2023-05-11T08:15:15;101356.13;;;14.63;100.00
8627;BME280;4351;51.422;6.794;2023-05-11T08:17:56;101315.78;;;14.84;100.00
8627;BME280;4351;51.422;6.794;2023-05-11T08:20:40;101243.00;;;14.76;100.00
8627;BME280;4351;51.422;6.794;2023-05-11T08:23:23;101200.63;;;15.00;100.00
8627;BME280;4351;51.422;6.794;2023-05-11T08:26:01;101210.50;;;14.88;100.00
8627;BME280;4351;51.422;6.794;2023-05-11T08:28:44;101229.50;;;14.75;100.00
8627;BME280;4351;51.422;6.794;2023-05-11T08:31:23;101254.59;;;14.78;100.00
8627;BME280;4351;51.422;6.794;2023-05-11T08:34:00;101256.00;;;14.71;100.00
8627;BME280;4351;51.422;6.794;2023-05-11T08:36:38;101257.75;;;14.72;100.00
8627;BME280;4351;51.422;6.794;2023-05-11T08:39:19;101282.28;;;14.70;100.00
8627;BME280;4351;51.422;6.794;2023-05-11T08:42:25;101296.75;;;14.71;100.00
8627;BME280;4351;51.422;6.794;2023-05-11T08:45:09;101272.50;;;14.81;100.00
8627;BME280;4351;51.422;6.794;2023-05-11T08:47:46;101258.84;;;14.82;100.00
8627;BME280;4351;51.422;6.794;2023-05-11T08:50:28;101234.44;;;14.96;100.00
8627;BME280;4351;51.422;6.794;2023-05-11T08:53:13;101171.72;;;14.86;100.00
8627;BME280;4351;51.422;6.794;2023-05-11T08:55:49;101102.28;;;14.94;100.00
8627;BME280;4351;51.422;6.794;2023-05-11T08:58:34;101094.25;;;14.80;100.00
8627;BME280;4351;51.422;6.794;2023-05-11T09:01:18;101112.59;;;15.02;100.00
8627;BME280;4351;51.422;6.794;2023-05-11T09:04:04;101126.59;;;15.09;100.00
8627;BME280;4351;51.422;6.794;2023-05-11T09:06:48;101134.59;;;14.86;100.00
8627;BME280;4351;51.422;6.794;2023-05-11T09:09:28;101149.16;;;14.72;100.00
8627;BME280;4351;51.422;6.794;2023-05-11T09:12:05;101139.91;;;14.88;100.00
8627;BME280;4351;51.422;6.794;2023-05-11T09:14:48;101165.31;;;14.74;100.00
8627;BME280;4351;51.422;6.794;2023-05-11T09:17:28;101206.50;;;14.67;100.00
8627;BME280;4351;51.422;6.794;2023-05-11T09:20:11;101261.66;;;14.94;100.00
8627;BME280;4351;51.422;6.794;2023-05-11T09:22:59;101247.09;;;14.69;100.00
8627;BME280;4351;51.422;6.794;2023-05-11T09:25:47;101259.16;;;14.78;100.00
8627;BME280;4351;51.422;6.794;2023-05-11T09:28:24;101241.84;;;14.40;100.00
8627;BME280;4351;51.422;6.794;2023-05-11T09:31:04;101253.84;;;14.50;100.00
8627;BME280;4351;51.422;6.794;2023-05-11T09:33:47;101276.72;;;14.46;100.00
8627;BME280;4351;51.422;6.794;2023-05-11T09:36:24;101305.47;;;14.35;100.00
8627;BME280;4351;51.422;6.794;2023-05-11T09:39:00;101349.59;;;14.52;100.00
8627;BME280;4351;51.422;6.794;2023-05-11T09:41:32;101352.66;;;14.60;100.00
8627;BME280;4351;51.422;6.794;2023-05-11T09:44:10;101337.25;;;14.61;100.00
8627;BME280;4351;51.422;6.794;2023-05-11T09:46:52;101359.38;;;14.55;100.00
8627;BME280;4351;51.422;6.794;2023-05-11T09:49:50;101393.59;;;14.85;100.00
8627;BME280;4351;51.422;6.794;2023-05-11T09:52:32;101385.34;;;14.87;100.00
8627;BME280;4351;51.422;6.794;2023-05-11T09:55:11;101372.66;;;15.00;100.00
8627;BME280;4351;51.422;6.794;2023-05-11T09:57:59;101341.66;;;14.90;100.00
8627;BME280;4351;51.422;6.794;2023-05-11T10:00:47;101325.91;;;14.95;100.00
8627;BME280;4351;51.422;6.794;2023-05-11T10:03:31;101321.34;;;14.96;100.00
8627;BME280;4351;51.422;6.794;2023-05-11T10:06:08;101327.53;;;14.85;100.00
8627;BME280;4351;51.422;6.794;2023-05-11T10:08:39;101339.38;;;15.23;100.00
8627;BME280;4351;51.422;6.794;2023-05-11T10:11:17;101291.03;;;15.02;100.00
8627;BME280;4351;51.422;6.794;2023-05-11T10:14:01;101295.16;;;15.08;100.00
8627;BME280;4351;51.422;6.794;2023-05-11T10:16:47;101286.03;;;15.09;100.00
8627;BME280;4351;51.422;6.794;2023-05-11T10:19:26;101294.63;;;15.15;100.00
8627;BME280;4351;51.422;6.794;2023-05-11T10:22:11;101296.78;;;15.23;100.00
8627;BME280;4351;51.422;6.794;2023-05-11T10:24:45;101270.13;;;15.28;100.00
8627;BME280;4351;51.422;6.794;2023-05-11T10:27:17;101247.66;;;15.26;100.00
8627;BME280;4351;51.422;6.794;2023-05-11T10:29:57;101233.28;;;15.37;100.00
8627;BME280;4351;51.422;6.794;2023-05-11T10:32:40;101221.59;;;15.48;100.00
8627;BME280;4351;51.422;6.794;2023-05-11T10:35:28;101222.84;;;15.56;100.00
8627;BME280;4351;51.422;6.794;2023-05-11T10:38:11;101206.41;;;15.70;100.00
8627;BME280;4351;51.422;6.794;2023-05-11T10:40:53;101163.44;;;15.62;100.00
8627;BME280;4351;51.422;6.794;2023-05-11T10:43:54;101149.09;;;15.60;100.00
8627;BME280;4351;51.422;6.794;2023-05-11T10:46:55;101131.91;;;15.60;100.00
8627;BME280;4351;51.422;6.794;2023-05-11T10:50:15;101105.31;;;15.77;100.00
8627;BME280;4351;51.422;6.794;2023-05-11T10:53:06;101088.97;;;15.77;100.00
8627;BME280;4351;51.422;6.794;2023-05-11T10:56:02;101052.63;;;15.78;100.00
8627;BME280;4351;51.422;6.794;2023-05-11T10:59:14;101023.22;;;15.83;100.00
8627;BME280;4351;51.422;6.794;2023-05-11T11:01:58;100970.31;;;15.98;100.00
8627;BME280;4351;51.422;6.794;2023-05-11T11:04:41;100945.84;;;15.98;100.00
8627;BME280;4351;51.422;6.794;2023-05-11T11:07:22;100939.53;;;15.98;100.00
8627;BME280;4351;51.422;6.794;2023-05-11T11:10:01;100935.19;;;15.72;100.00
8627;BME280;4351;51.422;6.794;2023-05-11T11:13:01;100931.72;;;15.82;100.00
8627;BME280;4351;51.422;6.794;2023-05-11T11:16:06;100927.50;;;15.78;100.00
8627;BME280;4351;51.422;6.794;2023-05-11T11:18:43;100909.97;;;15.93;100.00
8627;BME280;4351;51.422;6.794;2023-05-11T11:21:41;100914.44;;;15.83;100.00
8627;BME280;4351;51.422;6.794;2023-05-11T11:24:42;100903.91;;;16.13;100.00
8627;BME280;4351;51.422;6.794;2023-05-11T11:27:55;100911.47;;;16.09;100.00
8627;BME280;4351;51.422;6.794;2023-05-11T11:30:39;100903.31;;;16.09;100.00
8627;BME280;4351;51.422;6.794;2023-05-11T11:33:32;100908.97;;;16.17;100.00
8627;BME280;4351;51.422;6.794;2023-05-11T11:36:12;100906.91;;;16.09;100.00
8627;BME280;4351;51.422;6.794;2023-05-11T11:38:56;100895.13;;;16.20;100.00
8627;BME280;4351;51.422;6.794;2023-05-11T11:41:29;100891.00;;;16.38;100.00
8627;BME280;4351;51.422;6.794;2023-05-11T11:44:00;100881.50;;;16.32;100.00
8627;BME280;4351;51.422;6.794;2023-05-11T11:47:08;100877.25;;;16.39;100.00
8627;BME280;4351;51.422;6.794;2023-05-11T11:49:52;100880.38;;;16.35;100.00
8627;BME280;4351;51.422;6.794;2023-05-11T11:52:33;100863.44;;;16.31;100.00
8627;BME280;4351;51.422;6.794;2023-05-11T11:55:44;100859.25;;;16.27;100.00
8627;BME280;4351;51.422;6.794;2023-05-11T11:58:56;100856.38;;;16.28;100.00
8627;BME280;4351;51.422;6.794;2023-05-11T12:01:41;100852.09;;;16.14;100.00
8627;BME280;4351;51.422;6.794;2023-05-11T12:04:55;100855.94;;;16.12;100.00
8627;BME280;4351;51.422;6.794;2023-05-11T12:07:41;100858.53;;;16.13;100.00
8627;BME280;4351;51.422;6.794;2023-05-11T12:10:25;100854.19;;;16.11;100.00
8627;BME280;4351;51.422;6.794;2023-05-11T12:13:05;100858.50;;;16.25;100.00
8627;BME280;4351;51.422;6.794;2023-05-11T12:15:49;100855.81;;;16.13;100.00
8627;BME280;4351;51.422;6.794;2023-05-11T12:18:33;100861.91;;;16.05;100.00
8627;BME280;4351;51.422;6.794;2023-05-11T12:21:19;100858.06;;;16.08;100.00
8627;BME280;4351;51.422;6.794;2023-05-11T12:23:58;100866.44;;;15.93;100.00
8627;BME280;4351;51.422;6.794;2023-05-11T12:26:36;100864.22;;;15.87;100.00
8627;BME280;4351;51.422;6.794;2023-05-11T12:29:22;100874.72;;;15.92;100.00
8627;BME280;4351;51.422;6.794;2023-05-11T12:32:10;100874.13;;;15.88;100.00
8627;BME280;4351;51.422;6.794;2023-05-11T12:34:59;100866.47;;;15.70;100.00
8627;BME280;4351;51.422;6.794;2023-05-11T12:37:41;100865.97;;;15.77;100.00
8627;BME280;4351;51.422;6.794;2023-05-11T12:40:27;100866.97;;;15.64;100.00
8627;BME280;4351;51.422;6.794;2023-05-11T12:43:00;100877.72;;;15.77;100.00
8627;BME280;4351;51.422;6.794;2023-05-11T12:45:38;100866.72;;;15.79;100.00
8627;BME280;4351;51.422;6.794;2023-05-11T12:48:16;100861.78;;;15.84;100.00
8627;BME280;4351;51.422;6.794;2023-05-11T12:50:58;100860.03;;;15.71;100.00
8627;BME280;4351;51.422;6.794;2023-05-11T12:53:35;100864.25;;;15.64;100.00
8627;BME280;4351;51.422;6.794;2023-05-11T12:56:11;100863.13;;;15.78;100.00
8627;BME280;4351;51.422;6.794;2023-05-11T12:58:49;100860.66;;;15.75;100.00
8627;BME280;4351;51.422;6.794;2023-05-11T13:01:34;100869.16;;;15.82;100.00
8627;BME280;4351;51.422;6.794;2023-05-11T13:04:15;100879.44;;;15.78;100.00
8627;BME280;4351;51.422;6.794;2023-05-11T13:06:55;100875.59;;;15.69;100.00
8627;BME280;4351;51.422;6.794;2023-05-11T13:09:40;100869.06;;;15.72;100.00
8627;BME280;4351;51.422;6.794;2023-05-11T13:12:19;100872.38;;;15.87;100.00
8627;BME280;4351;51.422;6.794;2023-05-11T13:15:09;100868.41;;;15.91;100.00
8627;BME280;4351;51.422;6.794;2023-05-11T13:17:57;100868.78;;;15.86;100.00
8627;BME280;4351;51.422;6.794;2023-05-11T13:20:43;100872.75;;;15.82;100.00
8627;BME280;4351;51.422;6.794;2023-05-11T13:23:20;100877.84;;;16.10;100.00
8627;BME280;4351;51.422;6.794;2023-05-11T13:26:01;100868.88;;;16.31;100.00
8627;BME280;4351;51.422;6.794;2023-05-11T13:28:45;100858.88;;;16.20;100.00
8627;BME280;4351;51.422;6.794;2023-05-11T13:31:41;100863.00;;;16.14;100.00
8627;BME280;4351;51.422;6.794;2023-05-11T13:34:19;100865.19;;;16.20;100.00
8627;BME280;4351;51.422;6.794;2023-05-11T13:36:52;100877.28;;;16.28;100.00
8627;BME280;4351;51.422;6.794;2023-05-11T13:39:30;100888.88;;;16.41;100.00
8627;BME280;4351;51.422;6.794;2023-05-11T13:42:06;100889.19;;;16.27;100.00
8627;BME280;4351;51.422;6.794;2023-05-11T13:44:38;100881.94;;;16.49;100.00
8627;BME280;4351;51.422;6.794;2023-05-11T13:47:26;100872.94;;;16.37;100.00
8627;BME280;4351;51.422;6.794;2023-05-11T13:50:09;100873.28;;;16.43;100.00
8627;BME280;4351;51.422;6.794;2023-05-11T13:52:49;100870.28;;;16.58;100.00
8627;BME280;4351;51.422;6.794;2023-05-11T13:55:30;100867.94;;;16.53;100.00
8627;BME280;4351;51.422;6.794;2023-05-11T13:58:10;100865.22;;;16.53;100.00
8627;BME280;4351;51.422;6.794;2023-05-11T14:00:53;100869.59;;;16.45;100.00
8627;BME280;4351;51.422;6.794;2023-05-11T14:03:43;100876.25;;;16.52;100.00
8627;BME280;4351;51.422;6.794;2023-05-11T14:06:32;100875.50;;;16.50;100.00
8627;BME280;4351;51.422;6.794;2023-05-11T14:09:18;100875.56;;;16.38;100.00
8627;BME280;4351;51.422;6.794;2023-05-11T14:11:55;100874.31;;;16.31;100.00
8627;BME280;4351;51.422;6.794;2023-05-11T14:14:33;100873.66;;;16.39;100.00
8627;BME280;4351;51.422;6.794;2023-05-11T14:17:16;100877.03;;;16.31;100.00
8627;BME280;4351;51.422;6.794;2023-05-11T14:19:58;100875.44;;;16.17;100.00
8627;BME280;4351;51.422;6.794;2023-05-11T14:22:36;100869.63;;;16.22;100.00